sensor_id;sensor_type;location;lat;lon;timestamp;P1;durP1;ratioP1;P2;durP2;ratioP2
22236;SDS011;11287;48.122;11.536;2023-12-28T00:01:39;2.10;;;1.20;;
22236;SDS011;11287;48.122;11.536;2023-12-28T00:04:04;1.50;;;1.20;;
22236;SDS011;11287;48.122;11.536;2023-12-28T00:06:29;1.45;;;1.08;;
22236;SDS011;11287;48.122;11.536;2023-12-28T00:08:55;1.15;;;0.90;;
22236;SDS011;11287;48.122;11.536;2023-12-28T00:11:20;2.75;;;1.33;;
22236;SDS011;11287;48.122;11.536;2023-12-28T00:13:45;3.42;;;0.98;;
22236;SDS011;11287;48.122;11.536;2023-12-28T00:16:11;2.10;;;1.30;;
22236;SDS011;11287;48.122;11.536;2023-12-28T00:18:36;2.15;;;1.00;;
22236;SDS011;11287;48.122;11.536;2023-12-28T00:21:01;1.65;;;1.17;;
22236;SDS011;11287;48.122;11.536;2023-12-28T00:23:27;2.13;;;1.10;;
22236;SDS011;11287;48.122;11.536;2023-12-28T00:25:52;1.23;;;1.10;;
22236;SDS011;11287;48.122;11.536;2023-12-28T00:28:17;1.67;;;1.05;;
22236;SDS011;11287;48.122;11.536;2023-12-28T00:30:42;1.95;;;1.40;;
22236;SDS011;11287;48.122;11.536;2023-12-28T00:33:08;1.08;;;0.90;;
22236;SDS011;11287;48.122;11.536;2023-12-28T00:35:33;2.72;;;1.13;;
22236;SDS011;11287;48.122;11.536;2023-12-28T00:37:59;1.85;;;1.33;;
22236;SDS011;11287;48.122;11.536;2023-12-28T00:40:24;1.58;;;1.02;;
22236;SDS011;11287;48.122;11.536;2023-12-28T00:42:49;1.35;;;1.05;;
22236;SDS011;11287;48.122;11.536;2023-12-28T00:45:15;1.73;;;1.30;;
22236;SDS011;11287;48.122;11.536;2023-12-28T00:47:40;1.65;;;1.27;;
22236;SDS011;11287;48.122;11.536;2023-12-28T00:50:08;1.55;;;1.27;;
22236;SDS011;11287;48.122;11.536;2023-12-28T00:52:34;1.48;;;1.10;;
22236;SDS011;11287;48.122;11.536;2023-12-28T00:54:59;5.97;;;1.80;;
22236;SDS011;11287;48.122;11.536;2023-12-28T00:57:24;4.15;;;1.35;;
22236;SDS011;11287;48.122;11.536;2023-12-28T00:59:50;1.40;;;1.20;;
22236;SDS011;11287;48.122;11.536;2023-12-28T01:02:15;1.77;;;1.10;;
22236;SDS011;11287;48.122;11.536;2023-12-28T01:04:40;1.58;;;1.00;;
22236;SDS011;11287;48.122;11.536;2023-12-28T01:07:05;3.72;;;1.05;;
22236;SDS011;11287;48.122;11.536;2023-12-28T01:09:31;3.28;;;1.40;;
22236;SDS011;11287;48.122;11.536;2023-12-28T01:11:59;1.50;;;1.40;;
22236;SDS011;11287;48.122;11.536;2023-12-28T01:14:24;2.00;;;1.38;;
22236;SDS011;11287;48.122;11.536;2023-12-28T01:16:50;2.60;;;1.30;;
22236;SDS011;11287;48.122;11.536;2023-12-28T01:19:16;3.38;;;1.48;;
22236;SDS011;11287;48.122;11.536;2023-12-28T01:21:41;1.50;;;1.10;;
22236;SDS011;11287;48.122;11.536;2023-12-28T01:24:06;2.58;;;1.40;;
22236;SDS011;11287;48.122;11.536;2023-12-28T01:26:32;2.55;;;1.48;;
22236;SDS011;11287;48.122;11.536;2023-12-28T01:28:57;1.67;;;1.27;;
22236;SDS011;11287;48.122;11.536;2023-12-28T01:31:22;2.60;;;1.50;;
22236;SDS011;11287;48.122;11.536;2023-12-28T01:33:48;4.22;;;1.60;;
22236;SDS011;11287;48.122;11.536;2023-12-28T01:36:15;2.35;;;1.50;;
22236;SDS011;11287;48.122;11.536;2023-12-28T01:38:41;1.67;;;1.17;;
22236;SDS011;11287;48.122;11.536;2023-12-28T01:41:06;1.73;;;1.30;;
22236;SDS011;11287;48.122;11.536;2023-12-28T01:43:32;2.55;;;1.70;;
22236;SDS011;11287;48.122;11.536;2023-12-28T01:45:57;2.40;;;1.30;;
22236;SDS011;11287;48.122;11.536;2023-12-28T01:48:22;3.13;;;1.40;;
22236;SDS011;11287;48.122;11.536;2023-12-28T01:50:48;1.48;;;0.93;;
22236;SDS011;11287;48.122;11.536;2023-12-28T01:53:13;2.97;;;1.20;;
22236;SDS011;11287;48.122;11.536;2023-12-28T01:55:39;2.55;;;1.40;;
22236;SDS011;11287;48.122;11.536;2023-12-28T01:58:04;1.67;;;1.38;;
22236;SDS011;11287;48.122;11.536;2023-12-28T02:00:29;2.83;;;1.33;;
22236;SDS011;11287;48.122;11.536;2023-12-28T02:02:56;1.45;;;1.20;;
22236;SDS011;11287;48.122;11.536;2023-12-28T02:05:22;3.45;;;1.40;;
22236;SDS011;11287;48.122;11.536;2023-12-28T02:07:47;2.05;;;1.33;;
22236;SDS011;11287;48.122;11.536;2023-12-28T02:10:12;1.58;;;1.00;;
22236;SDS011;11287;48.122;11.536;2023-12-28T02:12:37;1.25;;;0.85;;
22236;SDS011;11287;48.122;11.536;2023-12-28T02:15:03;1.60;;;1.17;;
22236;SDS011;11287;48.122;11.536;2023-12-28T02:17:36;1.50;;;1.20;;
22236;SDS011;11287;48.122;11.536;2023-12-28T02:20:06;1.45;;;1.10;;
22236;SDS011;11287;48.122;11.536;2023-12-28T02:22:32;2.78;;;1.58;;
22236;SDS011;11287;48.122;11.536;2023-12-28T02:27:45;1.33;;;1.00;;
22236;SDS011;11287;48.122;11.536;2023-12-28T02:30:13;1.33;;;1.10;;
22236;SDS011;11287;48.122;11.536;2023-12-28T02:35:16;1.65;;;0.93;;
22236;SDS011;11287;48.122;11.536;2023-12-28T02:37:43;1.25;;;1.08;;
22236;SDS011;11287;48.122;11.536;2023-12-28T02:40:10;2.17;;;1.20;;
22236;SDS011;11287;48.122;11.536;2023-12-28T02:42:36;1.75;;;1.08;;
22236;SDS011;11287;48.122;11.536;2023-12-28T02:45:02;1.25;;;1.00;;
22236;SDS011;11287;48.122;11.536;2023-12-28T02:47:27;1.85;;;1.20;;
22236;SDS011;11287;48.122;11.536;2023-12-28T02:49:53;1.73;;;0.90;;
22236;SDS011;11287;48.122;11.536;2023-12-28T02:52:18;1.83;;;0.95;;
22236;SDS011;11287;48.122;11.536;2023-12-28T02:54:43;2.90;;;1.10;;
22236;SDS011;11287;48.122;11.536;2023-12-28T02:57:09;2.25;;;0.90;;
22236;SDS011;11287;48.122;11.536;2023-12-28T02:59:34;1.75;;;1.00;;
22236;SDS011;11287;48.122;11.536;2023-12-28T03:01:59;0.75;;;0.68;;
22236;SDS011;11287;48.122;11.536;2023-12-28T03:04:24;1.98;;;1.10;;
22236;SDS011;11287;48.122;11.536;2023-12-28T03:06:50;1.00;;;0.75;;
22236;SDS011;11287;48.122;11.536;2023-12-28T03:09:15;1.65;;;0.80;;
22236;SDS011;11287;48.122;11.536;2023-12-28T03:11:40;2.10;;;0.85;;
22236;SDS011;11287;48.122;11.536;2023-12-28T03:14:06;1.30;;;0.98;;
22236;SDS011;11287;48.122;11.536;2023-12-28T03:16:31;1.13;;;0.90;;
22236;SDS011;11287;48.122;11.536;2023-12-28T03:18:56;1.98;;;1.10;;
22236;SDS011;11287;48.122;11.536;2023-12-28T03:21:21;0.90;;;0.80;;
22236;SDS011;11287;48.122;11.536;2023-12-28T03:23:47;1.80;;;0.90;;
22236;SDS011;11287;48.122;11.536;2023-12-28T03:26:12;0.90;;;0.73;;
22236;SDS011;11287;48.122;11.536;2023-12-28T03:28:37;0.70;;;0.70;;
22236;SDS011;11287;48.122;11.536;2023-12-28T03:31:02;1.13;;;0.75;;
22236;SDS011;11287;48.122;11.536;2023-12-28T03:33:28;2.08;;;0.85;;
22236;SDS011;11287;48.122;11.536;2023-12-28T03:35:53;1.13;;;0.80;;
22236;SDS011;11287;48.122;11.536;2023-12-28T03:38:19;1.00;;;0.90;;
22236;SDS011;11287;48.122;11.536;2023-12-28T03:40:44;0.80;;;0.68;;
22236;SDS011;11287;48.122;11.536;2023-12-28T03:43:12;1.35;;;0.75;;
22236;SDS011;11287;48.122;11.536;2023-12-28T03:45:38;3.28;;;0.90;;
22236;SDS011;11287;48.122;11.536;2023-12-28T03:48:03;1.10;;;0.70;;
22236;SDS011;11287;48.122;11.536;2023-12-28T03:50:29;2.00;;;1.20;;
22236;SDS011;11287;48.122;11.536;2023-12-28T03:52:54;0.73;;;0.65;;
22236;SDS011;11287;48.122;11.536;2023-12-28T03:55:19;0.82;;;0.65;;
22236;SDS011;11287;48.122;11.536;2023-12-28T03:57:44;2.03;;;1.00;;
22236;SDS011;11287;48.122;11.536;2023-12-28T04:00:12;0.80;;;0.57;;
22236;SDS011;11287;48.122;11.536;2023-12-28T04:02:37;1.05;;;0.60;;
22236;SDS011;11287;48.122;11.536;2023-12-28T04:05:02;1.35;;;0.90;;
22236;SDS011;11287;48.122;11.536;2023-12-28T04:07:29;0.75;;;0.57;;
22236;SDS011;11287;48.122;11.536;2023-12-28T04:09:54;0.55;;;0.43;;
22236;SDS011;11287;48.122;11.536;2023-12-28T04:12:21;2.03;;;0.80;;
22236;SDS011;11287;48.122;11.536;2023-12-28T04:14:46;0.88;;;0.65;;
22236;SDS011;11287;48.122;11.536;2023-12-28T04:17:11;0.50;;;0.40;;
22236;SDS011;11287;48.122;11.536;2023-12-28T04:19:37;1.02;;;0.70;;
22236;SDS011;11287;48.122;11.536;2023-12-28T04:22:02;0.57;;;0.52;;
22236;SDS011;11287;48.122;11.536;2023-12-28T04:24:27;0.70;;;0.43;;
22236;SDS011;11287;48.122;11.536;2023-12-28T04:26:53;1.05;;;0.70;;
22236;SDS011;11287;48.122;11.536;2023-12-28T04:29:18;0.93;;;0.80;;
22236;SDS011;11287;48.122;11.536;2023-12-28T04:31:43;1.33;;;0.70;;
22236;SDS011;11287;48.122;11.536;2023-12-28T04:34:08;1.15;;;0.85;;
22236;SDS011;11287;48.122;11.536;2023-12-28T04:36:39;1.05;;;0.47;;
22236;SDS011;11287;48.122;11.536;2023-12-28T04:39:05;1.20;;;0.70;;
22236;SDS011;11287;48.122;11.536;2023-12-28T04:41:31;0.60;;;0.60;;
22236;SDS011;11287;48.122;11.536;2023-12-28T04:43:56;0.70;;;0.57;;
22236;SDS011;11287;48.122;11.536;2023-12-28T04:46:21;1.02;;;0.60;;
22236;SDS011;11287;48.122;11.536;2023-12-28T04:48:46;1.52;;;0.45;;
22236;SDS011;11287;48.122;11.536;2023-12-28T04:51:12;0.73;;;0.50;;
22236;SDS011;11287;48.122;11.536;2023-12-28T04:53:38;0.95;;;0.50;;
22236;SDS011;11287;48.122;11.536;2023-12-28T04:56:04;0.80;;;0.60;;
22236;SDS011;11287;48.122;11.536;2023-12-28T04:58:29;0.77;;;0.60;;
22236;SDS011;11287;48.122;11.536;2023-12-28T05:00:55;0.93;;;0.68;;
22236;SDS011;11287;48.122;11.536;2023-12-28T05:03:20;0.68;;;0.60;;
22236;SDS011;11287;48.122;11.536;2023-12-28T05:05:45;0.55;;;0.55;;
22236;SDS011;11287;48.122;11.536;2023-12-28T05:08:11;0.55;;;0.32;;
22236;SDS011;11287;48.122;11.536;2023-12-28T05:10:36;0.80;;;0.50;;
22236;SDS011;11287;48.122;11.536;2023-12-28T05:13:01;0.73;;;0.60;;
22236;SDS011;11287;48.122;11.536;2023-12-28T05:15:26;1.20;;;0.60;;
22236;SDS011;11287;48.122;11.536;2023-12-28T05:17:52;0.75;;;0.47;;
22236;SDS011;11287;48.122;11.536;2023-12-28T05:20:17;0.40;;;0.40;;
22236;SDS011;11287;48.122;11.536;2023-12-28T05:22:42;0.88;;;0.60;;
22236;SDS011;11287;48.122;11.536;2023-12-28T05:25:08;0.85;;;0.50;;
22236;SDS011;11287;48.122;11.536;2023-12-28T05:27:33;2.65;;;0.60;;
22236;SDS011;11287;48.122;11.536;2023-12-28T05:29:59;0.40;;;0.40;;
22236;SDS011;11287;48.122;11.536;2023-12-28T05:32:24;0.68;;;0.40;;
22236;SDS011;11287;48.122;11.536;2023-12-28T05:34:49;0.70;;;0.68;;
22236;SDS011;11287;48.122;11.536;2023-12-28T05:37:15;1.13;;;0.70;;
22236;SDS011;11287;48.122;11.536;2023-12-28T05:39:40;0.47;;;0.45;;
22236;SDS011;11287;48.122;11.536;2023-12-28T05:42:05;1.50;;;0.60;;
22236;SDS011;11287;48.122;11.536;2023-12-28T05:44:31;1.00;;;0.70;;
22236;SDS011;11287;48.122;11.536;2023-12-28T05:46:56;0.88;;;0.80;;
22236;SDS011;11287;48.122;11.536;2023-12-28T05:49:22;1.05;;;0.60;;
22236;SDS011;11287;48.122;11.536;2023-12-28T05:51:47;0.82;;;0.60;;
22236;SDS011;11287;48.122;11.536;2023-12-28T05:54:13;1.25;;;0.70;;
22236;SDS011;11287;48.122;11.536;2023-12-28T05:56:38;0.50;;;0.50;;
22236;SDS011;11287;48.122;11.536;2023-12-28T05:59:03;1.33;;;0.50;;
22236;SDS011;11287;48.122;11.536;2023-12-28T06:01:29;5.25;;;0.57;;
22236;SDS011;11287;48.122;11.536;2023-12-28T06:03:54;0.85;;;0.50;;
22236;SDS011;11287;48.122;11.536;2023-12-28T06:06:19;1.02;;;0.60;;
22236;SDS011;11287;48.122;11.536;2023-12-28T06:08:45;0.63;;;0.60;;
22236;SDS011;11287;48.122;11.536;2023-12-28T06:11:11;1.13;;;0.60;;
22236;SDS011;11287;48.122;11.536;2023-12-28T06:13:36;1.52;;;0.70;;
22236;SDS011;11287;48.122;11.536;2023-12-28T06:16:01;0.82;;;0.65;;
22236;SDS011;11287;48.122;11.536;2023-12-28T06:18:27;1.40;;;0.57;;
22236;SDS011;11287;48.122;11.536;2023-12-28T06:20:52;0.77;;;0.52;;
22236;SDS011;11287;48.122;11.536;2023-12-28T06:23:17;0.70;;;0.60;;
22236;SDS011;11287;48.122;11.536;2023-12-28T06:25:43;0.90;;;0.80;;
22236;SDS011;11287;48.122;11.536;2023-12-28T06:28:08;1.23;;;0.80;;
22236;SDS011;11287;48.122;11.536;2023-12-28T06:30:34;0.90;;;0.77;;
22236;SDS011;11287;48.122;11.536;2023-12-28T06:32:59;1.10;;;1.00;;
22236;SDS011;11287;48.122;11.536;2023-12-28T06:35:24;1.00;;;0.90;;
22236;SDS011;11287;48.122;11.536;2023-12-28T06:37:49;1.00;;;0.90;;
22236;SDS011;11287;48.122;11.536;2023-12-28T06:40:15;1.08;;;0.82;;
22236;SDS011;11287;48.122;11.536;2023-12-28T06:42:40;2.60;;;1.00;;
22236;SDS011;11287;48.122;11.536;2023-12-28T06:45:08;3.05;;;1.13;;
22236;SDS011;11287;48.122;11.536;2023-12-28T06:47:34;1.48;;;1.02;;
22236;SDS011;11287;48.122;11.536;2023-12-28T06:49:59;1.10;;;0.70;;
22236;SDS011;11287;48.122;11.536;2023-12-28T06:52:24;1.10;;;0.90;;
22236;SDS011;11287;48.122;11.536;2023-12-28T06:54:50;1.58;;;1.00;;
22236;SDS011;11287;48.122;11.536;2023-12-28T06:57:16;0.80;;;0.70;;
22236;SDS011;11287;48.122;11.536;2023-12-28T06:59:42;1.38;;;0.77;;
22236;SDS011;11287;48.122;11.536;2023-12-28T07:02:07;4.03;;;0.90;;
22236;SDS011;11287;48.122;11.536;2023-12-28T07:04:32;1.23;;;0.90;;
22236;SDS011;11287;48.122;11.536;2023-12-28T07:06:58;3.85;;;1.00;;
22236;SDS011;11287;48.122;11.536;2023-12-28T07:09:23;2.85;;;1.35;;
22236;SDS011;11287;48.122;11.536;2023-12-28T07:11:48;1.52;;;0.80;;
22236;SDS011;11287;48.122;11.536;2023-12-28T07:14:14;1.58;;;1.02;;
22236;SDS011;11287;48.122;11.536;2023-12-28T07:16:39;3.05;;;1.05;;
22236;SDS011;11287;48.122;11.536;2023-12-28T07:19:04;1.42;;;0.93;;
22236;SDS011;11287;48.122;11.536;2023-12-28T07:21:30;1.75;;;1.00;;
22236;SDS011;11287;48.122;11.536;2023-12-28T07:23:55;3.08;;;1.27;;
22236;SDS011;11287;48.122;11.536;2023-12-28T07:26:20;2.17;;;1.00;;
22236;SDS011;11287;48.122;11.536;2023-12-28T07:28:45;0.80;;;0.75;;
22236;SDS011;11287;48.122;11.536;2023-12-28T07:31:22;4.30;;;1.17;;
22236;SDS011;11287;48.122;11.536;2023-12-28T07:33:48;2.88;;;1.63;;
22236;SDS011;11287;48.122;11.536;2023-12-28T07:36:13;1.88;;;1.20;;
22236;SDS011;11287;48.122;11.536;2023-12-28T07:38:38;1.30;;;0.90;;
22236;SDS011;11287;48.122;11.536;2023-12-28T07:41:04;3.47;;;1.95;;
22236;SDS011;11287;48.122;11.536;2023-12-28T07:43:29;2.45;;;1.52;;
22236;SDS011;11287;48.122;11.536;2023-12-28T07:45:54;2.72;;;1.35;;
22236;SDS011;11287;48.122;11.536;2023-12-28T07:48:20;2.70;;;1.67;;
22236;SDS011;11287;48.122;11.536;2023-12-28T07:50:45;4.38;;;1.77;;
22236;SDS011;11287;48.122;11.536;2023-12-28T07:53:10;5.18;;;1.88;;
22236;SDS011;11287;48.122;11.536;2023-12-28T07:55:36;5.03;;;3.17;;
22236;SDS011;11287;48.122;11.536;2023-12-28T07:58:01;7.28;;;4.10;;
22236;SDS011;11287;48.122;11.536;2023-12-28T08:00:26;7.57;;;4.57;;
22236;SDS011;11287;48.122;11.536;2023-12-28T08:02:51;9.38;;;5.10;;
22236;SDS011;11287;48.122;11.536;2023-12-28T08:05:17;6.63;;;4.00;;
22236;SDS011;11287;48.122;11.536;2023-12-28T08:07:42;3.92;;;2.47;;
22236;SDS011;11287;48.122;11.536;2023-12-28T08:10:07;3.42;;;2.20;;
22236;SDS011;11287;48.122;11.536;2023-12-28T08:12:33;3.05;;;2.28;;
22236;SDS011;11287;48.122;11.536;2023-12-28T08:14:58;2.47;;;1.80;;
22236;SDS011;11287;48.122;11.536;2023-12-28T08:17:24;3.85;;;1.63;;
22236;SDS011;11287;48.122;11.536;2023-12-28T08:19:50;2.05;;;1.40;;
22236;SDS011;11287;48.122;11.536;2023-12-28T08:22:15;2.08;;;1.50;;
22236;SDS011;11287;48.122;11.536;2023-12-28T08:24:40;2.92;;;1.00;;
22236;SDS011;11287;48.122;11.536;2023-12-28T08:27:06;6.70;;;3.28;;
22236;SDS011;11287;48.122;11.536;2023-12-28T08:29:31;6.25;;;3.42;;
22236;SDS011;11287;48.122;11.536;2023-12-28T08:31:56;8.05;;;2.35;;
22236;SDS011;11287;48.122;11.536;2023-12-28T08:34:22;4.80;;;2.83;;
22236;SDS011;11287;48.122;11.536;2023-12-28T08:36:47;7.68;;;4.28;;
22236;SDS011;11287;48.122;11.536;2023-12-28T08:39:12;9.32;;;4.10;;
22236;SDS011;11287;48.122;11.536;2023-12-28T08:41:38;3.38;;;2.35;;
22236;SDS011;11287;48.122;11.536;2023-12-28T08:44:03;2.15;;;1.40;;
22236;SDS011;11287;48.122;11.536;2023-12-28T08:46:28;1.85;;;0.95;;
22236;SDS011;11287;48.122;11.536;2023-12-28T08:48:54;1.00;;;0.88;;
22236;SDS011;11287;48.122;11.536;2023-12-28T08:51:19;1.20;;;0.93;;
22236;SDS011;11287;48.122;11.536;2023-12-28T08:53:45;1.98;;;1.20;;
22236;SDS011;11287;48.122;11.536;2023-12-28T08:58:45;1.58;;;1.15;;
22236;SDS011;11287;48.122;11.536;2023-12-28T09:01:22;1.83;;;0.93;;
22236;SDS011;11287;48.122;11.536;2023-12-28T09:03:49;2.17;;;0.80;;
22236;SDS011;11287;48.122;11.536;2023-12-28T09:06:15;1.88;;;1.20;;
22236;SDS011;11287;48.122;11.536;2023-12-28T09:08:41;1.35;;;1.20;;
22236;SDS011;11287;48.122;11.536;2023-12-28T09:11:10;3.70;;;2.17;;
22236;SDS011;11287;48.122;11.536;2023-12-28T09:13:36;1.88;;;1.73;;
22236;SDS011;11287;48.122;11.536;2023-12-28T09:16:02;1.75;;;1.17;;
22236;SDS011;11287;48.122;11.536;2023-12-28T09:18:27;2.65;;;1.33;;
22236;SDS011;11287;48.122;11.536;2023-12-28T09:20:53;5.10;;;2.88;;
22236;SDS011;11287;48.122;11.536;2023-12-28T09:23:18;3.47;;;1.30;;
22236;SDS011;11287;48.122;11.536;2023-12-28T09:25:43;0.85;;;0.80;;
22236;SDS011;11287;48.122;11.536;2023-12-28T09:28:08;1.40;;;0.90;;
22236;SDS011;11287;48.122;11.536;2023-12-28T09:30:34;3.28;;;0.85;;
22236;SDS011;11287;48.122;11.536;2023-12-28T09:32:59;1.95;;;0.82;;
22236;SDS011;11287;48.122;11.536;2023-12-28T09:35:24;1.05;;;0.88;;
22236;SDS011;11287;48.122;11.536;2023-12-28T09:37:50;1.85;;;0.65;;
22236;SDS011;11287;48.122;11.536;2023-12-28T09:40:16;5.28;;;0.77;;
22236;SDS011;11287;48.122;11.536;2023-12-28T09:42:50;1.75;;;0.75;;
22236;SDS011;11287;48.122;11.536;2023-12-28T09:45:19;0.85;;;0.60;;
22236;SDS011;11287;48.122;11.536;2023-12-28T09:47:45;1.02;;;0.70;;
22236;SDS011;11287;48.122;11.536;2023-12-28T09:50:12;0.80;;;0.70;;
22236;SDS011;11287;48.122;11.536;2023-12-28T09:52:38;0.95;;;0.60;;
22236;SDS011;11287;48.122;11.536;2023-12-28T09:55:03;1.90;;;0.82;;
22236;SDS011;11287;48.122;11.536;2023-12-28T09:57:29;1.17;;;0.70;;
22236;SDS011;11287;48.122;11.536;2023-12-28T09:59:54;0.88;;;0.80;;
22236;SDS011;11287;48.122;11.536;2023-12-28T10:02:20;0.70;;;0.70;;
22236;SDS011;11287;48.122;11.536;2023-12-28T10:04:45;1.23;;;0.70;;
22236;SDS011;11287;48.122;11.536;2023-12-28T10:07:11;1.40;;;0.70;;
22236;SDS011;11287;48.122;11.536;2023-12-28T10:09:36;0.52;;;0.52;;
22236;SDS011;11287;48.122;11.536;2023-12-28T10:12:02;0.93;;;0.52;;
22236;SDS011;11287;48.122;11.536;2023-12-28T10:14:29;0.70;;;0.60;;
22236;SDS011;11287;48.122;11.536;2023-12-28T10:16:54;0.55;;;0.45;;
22236;SDS011;11287;48.122;11.536;2023-12-28T10:19:22;0.82;;;0.63;;
22236;SDS011;11287;48.122;11.536;2023-12-28T10:21:48;0.98;;;0.88;;
22236;SDS011;11287;48.122;11.536;2023-12-28T10:24:14;4.53;;;1.02;;
22236;SDS011;11287;48.122;11.536;2023-12-28T10:26:39;1.23;;;0.73;;
22236;SDS011;11287;48.122;11.536;2023-12-28T10:29:05;1.20;;;0.73;;
22236;SDS011;11287;48.122;11.536;2023-12-28T10:31:30;1.00;;;0.70;;
22236;SDS011;11287;48.122;11.536;2023-12-28T10:33:59;1.10;;;0.73;;
22236;SDS011;11287;48.122;11.536;2023-12-28T10:36:27;3.03;;;0.70;;
22236;SDS011;11287;48.122;11.536;2023-12-28T10:38:52;3.97;;;1.00;;
22236;SDS011;11287;48.122;11.536;2023-12-28T10:41:18;2.47;;;1.30;;
22236;SDS011;11287;48.122;11.536;2023-12-28T10:43:56;1.08;;;0.80;;
22236;SDS011;11287;48.122;11.536;2023-12-28T10:46:28;1.42;;;0.93;;
22236;SDS011;11287;48.122;11.536;2023-12-28T10:49:00;1.02;;;0.80;;
22236;SDS011;11287;48.122;11.536;2023-12-28T10:51:30;1.30;;;0.90;;
22236;SDS011;11287;48.122;11.536;2023-12-28T10:56:58;0.95;;;0.80;;
22236;SDS011;11287;48.122;11.536;2023-12-28T11:02:02;1.33;;;0.88;;
22236;SDS011;11287;48.122;11.536;2023-12-28T11:04:31;1.67;;;0.77;;
22236;SDS011;11287;48.122;11.536;2023-12-28T11:07:03;2.13;;;1.05;;
22236;SDS011;11287;48.122;11.536;2023-12-28T11:09:31;1.60;;;1.00;;
22236;SDS011;11287;48.122;11.536;2023-12-28T11:11:57;1.55;;;0.93;;
22236;SDS011;11287;48.122;11.536;2023-12-28T11:14:24;0.80;;;0.63;;
22236;SDS011;11287;48.122;11.536;2023-12-28T11:16:49;1.55;;;1.10;;
22236;SDS011;11287;48.122;11.536;2023-12-28T11:19:15;6.78;;;1.10;;
22236;SDS011;11287;48.122;11.536;2023-12-28T11:21:41;1.45;;;0.80;;
22236;SDS011;11287;48.122;11.536;2023-12-28T11:24:07;0.65;;;0.50;;
22236;SDS011;11287;48.122;11.536;2023-12-28T11:26:33;3.83;;;0.68;;
22236;SDS011;11287;48.122;11.536;2023-12-28T11:29:02;1.17;;;0.98;;
22236;SDS011;11287;48.122;11.536;2023-12-28T11:31:28;1.48;;;1.00;;
22236;SDS011;11287;48.122;11.536;2023-12-28T11:33:53;1.02;;;0.90;;
22236;SDS011;11287;48.122;11.536;2023-12-28T11:36:43;1.05;;;0.80;;
22236;SDS011;11287;48.122;11.536;2023-12-28T11:39:08;1.05;;;0.73;;
22236;SDS011;11287;48.122;11.536;2023-12-28T11:41:35;1.77;;;0.80;;
22236;SDS011;11287;48.122;11.536;2023-12-28T11:44:01;0.80;;;0.70;;
22236;SDS011;11287;48.122;11.536;2023-12-28T11:46:28;2.33;;;0.80;;
22236;SDS011;11287;48.122;11.536;2023-12-28T11:49:02;5.55;;;1.13;;
22236;SDS011;11287;48.122;11.536;2023-12-28T11:51:31;1.40;;;1.10;;
22236;SDS011;11287;48.122;11.536;2023-12-28T11:53:57;1.23;;;1.10;;
22236;SDS011;11287;48.122;11.536;2023-12-28T11:56:24;2.10;;;1.42;;
22236;SDS011;11287;48.122;11.536;2023-12-28T11:58:50;1.20;;;0.90;;
22236;SDS011;11287;48.122;11.536;2023-12-28T12:01:16;1.83;;;0.85;;
22236;SDS011;11287;48.122;11.536;2023-12-28T12:03:41;0.75;;;0.52;;
22236;SDS011;11287;48.122;11.536;2023-12-28T12:06:06;0.85;;;0.85;;
22236;SDS011;11287;48.122;11.536;2023-12-28T12:08:32;1.52;;;1.23;;
22236;SDS011;11287;48.122;11.536;2023-12-28T12:11:16;4.70;;;1.17;;
22236;SDS011;11287;48.122;11.536;2023-12-28T12:13:43;1.70;;;1.40;;
22236;SDS011;11287;48.122;11.536;2023-12-28T12:16:08;2.53;;;1.60;;
22236;SDS011;11287;48.122;11.536;2023-12-28T12:18:34;2.05;;;1.15;;
22236;SDS011;11287;48.122;11.536;2023-12-28T12:21:00;0.98;;;0.80;;
22236;SDS011;11287;48.122;11.536;2023-12-28T12:23:26;5.10;;;1.08;;
22236;SDS011;11287;48.122;11.536;2023-12-28T12:25:51;7.18;;;4.03;;
22236;SDS011;11287;48.122;11.536;2023-12-28T12:28:17;2.00;;;1.23;;
22236;SDS011;11287;48.122;11.536;2023-12-28T12:30:49;7.53;;;2.38;;
22236;SDS011;11287;48.122;11.536;2023-12-28T12:33:23;7.90;;;3.65;;
22236;SDS011;11287;48.122;11.536;2023-12-28T12:35:50;14.98;;;5.47;;
22236;SDS011;11287;48.122;11.536;2023-12-28T12:38:16;4.25;;;2.75;;
22236;SDS011;11287;48.122;11.536;2023-12-28T12:40:41;2.45;;;1.63;;
22236;SDS011;11287;48.122;11.536;2023-12-28T12:43:07;7.78;;;3.70;;
22236;SDS011;11287;48.122;11.536;2023-12-28T12:45:35;4.63;;;2.22;;
22236;SDS011;11287;48.122;11.536;2023-12-28T12:48:04;10.20;;;4.53;;
22236;SDS011;11287;48.122;11.536;2023-12-28T12:50:33;5.68;;;2.60;;
22236;SDS011;11287;48.122;11.536;2023-12-28T12:52:59;15.20;;;6.55;;
22236;SDS011;11287;48.122;11.536;2023-12-28T12:55:25;12.90;;;5.50;;
22236;SDS011;11287;48.122;11.536;2023-12-28T12:57:51;7.97;;;3.65;;
22236;SDS011;11287;48.122;11.536;2023-12-28T13:00:20;6.65;;;3.30;;
22236;SDS011;11287;48.122;11.536;2023-12-28T13:02:46;5.50;;;2.42;;
22236;SDS011;11287;48.122;11.536;2023-12-28T13:05:11;8.45;;;3.38;;
22236;SDS011;11287;48.122;11.536;2023-12-28T13:07:36;5.07;;;2.50;;
22236;SDS011;11287;48.122;11.536;2023-12-28T13:10:02;9.25;;;4.20;;
22236;SDS011;11287;48.122;11.536;2023-12-28T13:12:27;6.65;;;4.55;;
22236;SDS011;11287;48.122;11.536;2023-12-28T13:14:52;5.95;;;3.75;;
22236;SDS011;11287;48.122;11.536;2023-12-28T13:17:18;8.55;;;3.15;;
22236;SDS011;11287;48.122;11.536;2023-12-28T13:19:43;6.20;;;3.25;;
22236;SDS011;11287;48.122;11.536;2023-12-28T13:22:09;7.90;;;3.28;;
22236;SDS011;11287;48.122;11.536;2023-12-28T13:24:34;1.67;;;1.40;;
22236;SDS011;11287;48.122;11.536;2023-12-28T13:26:59;2.03;;;1.42;;
22236;SDS011;11287;48.122;11.536;2023-12-28T13:29:25;2.05;;;1.10;;
22236;SDS011;11287;48.122;11.536;2023-12-28T13:31:51;1.92;;;1.40;;
22236;SDS011;11287;48.122;11.536;2023-12-28T13:34:16;1.55;;;1.40;;
22236;SDS011;11287;48.122;11.536;2023-12-28T13:36:44;3.55;;;2.10;;
22236;SDS011;11287;48.122;11.536;2023-12-28T13:39:09;2.67;;;1.42;;
22236;SDS011;11287;48.122;11.536;2023-12-28T13:41:37;1.00;;;0.90;;
22236;SDS011;11287;48.122;11.536;2023-12-28T13:44:02;1.80;;;1.20;;
22236;SDS011;11287;48.122;11.536;2023-12-28T13:46:29;1.10;;;0.82;;
22236;SDS011;11287;48.122;11.536;2023-12-28T13:48:55;2.15;;;1.40;;
22236;SDS011;11287;48.122;11.536;2023-12-28T13:51:21;1.15;;;0.85;;
22236;SDS011;11287;48.122;11.536;2023-12-28T13:53:47;2.65;;;1.20;;
22236;SDS011;11287;48.122;11.536;2023-12-28T13:56:12;1.65;;;0.93;;
22236;SDS011;11287;48.122;11.536;2023-12-28T13:58:37;3.40;;;2.05;;
22236;SDS011;11287;48.122;11.536;2023-12-28T14:01:03;2.75;;;1.00;;
22236;SDS011;11287;48.122;11.536;2023-12-28T14:03:29;1.15;;;0.93;;
22236;SDS011;11287;48.122;11.536;2023-12-28T14:05:55;3.22;;;1.17;;
22236;SDS011;11287;48.122;11.536;2023-12-28T14:08:20;1.80;;;0.98;;
22236;SDS011;11287;48.122;11.536;2023-12-28T14:10:46;1.58;;;1.20;;
22236;SDS011;11287;48.122;11.536;2023-12-28T14:13:11;4.25;;;0.93;;
22236;SDS011;11287;48.122;11.536;2023-12-28T14:15:36;3.05;;;0.80;;
22236;SDS011;11287;48.122;11.536;2023-12-28T14:18:03;5.97;;;1.00;;
22236;SDS011;11287;48.122;11.536;2023-12-28T14:20:30;4.13;;;1.00;;
22236;SDS011;11287;48.122;11.536;2023-12-28T14:22:56;1.38;;;1.08;;
22236;SDS011;11287;48.122;11.536;2023-12-28T14:25:21;1.33;;;0.93;;
22236;SDS011;11287;48.122;11.536;2023-12-28T14:27:47;1.17;;;0.90;;
22236;SDS011;11287;48.122;11.536;2023-12-28T14:30:13;1.45;;;0.85;;
22236;SDS011;11287;48.122;11.536;2023-12-28T14:32:39;2.17;;;1.27;;
22236;SDS011;11287;48.122;11.536;2023-12-28T14:35:04;3.58;;;1.05;;
22236;SDS011;11287;48.122;11.536;2023-12-28T14:37:30;2.03;;;1.05;;
22236;SDS011;11287;48.122;11.536;2023-12-28T14:39:55;2.90;;;0.95;;